sensor_id;sensor_type;location;lat;lon;timestamp;P1;durP1;ratioP1;P2;durP2;ratioP2
33760;SDS011;20084;47.912;19.044;2024-03-02T00:00:25;9.68;;;7.75;;
33760;SDS011;20084;47.912;19.044;2024-03-02T00:02:52;9.90;;;8.38;;
33760;SDS011;20084;47.912;19.044;2024-03-02T00:05:18;9.13;;;7.90;;
33760;SDS011;20084;47.912;19.044;2024-03-02T00:07:46;11.88;;;7.28;;
33760;SDS011;20084;47.912;19.044;2024-03-02T00:10:22;9.98;;;5.90;;
33760;SDS011;20084;47.912;19.044;2024-03-02T00:13:07;9.95;;;6.75;;
33760;SDS011;20084;47.912;19.044;2024-03-02T00:15:53;17.08;;;8.60;;
33760;SDS011;20084;47.912;19.044;2024-03-02T00:18:20;14.55;;;8.70;;
33760;SDS011;20084;47.912;19.044;2024-03-02T00:20:54;13.27;;;9.57;;
33760;SDS011;20084;47.912;19.044;2024-03-02T00:23:21;13.80;;;9.52;;
33760;SDS011;20084;47.912;19.044;2024-03-02T00:25:48;13.25;;;8.90;;
33760;SDS011;20084;47.912;19.044;2024-03-02T00:33:22;9.18;;;7.40;;
33760;SDS011;20084;47.912;19.044;2024-03-02T00:35:49;12.85;;;9.02;;
33760;SDS011;20084;47.912;19.044;2024-03-02T00:38:15;10.10;;;7.13;;
33760;SDS011;20084;47.912;19.044;2024-03-02T00:40:41;10.32;;;6.60;;
33760;SDS011;20084;47.912;19.044;2024-03-02T00:46:06;6.85;;;6.03;;
33760;SDS011;20084;47.912;19.044;2024-03-02T00:48:32;8.15;;;6.45;;
33760;SDS011;20084;47.912;19.044;2024-03-02T00:51:00;7.60;;;6.78;;
33760;SDS011;20084;47.912;19.044;2024-03-02T00:53:28;10.55;;;6.25;;
33760;SDS011;20084;47.912;19.044;2024-03-02T00:55:55;9.05;;;6.40;;
33760;SDS011;20084;47.912;19.044;2024-03-02T00:58:20;7.20;;;6.13;;
33760;SDS011;20084;47.912;19.044;2024-03-02T01:00:46;10.57;;;7.78;;
33760;SDS011;20084;47.912;19.044;2024-03-02T01:03:12;10.20;;;7.03;;
33760;SDS011;20084;47.912;19.044;2024-03-02T01:05:41;12.32;;;7.90;;
33760;SDS011;20084;47.912;19.044;2024-03-02T01:08:10;9.95;;;7.57;;
33760;SDS011;20084;47.912;19.044;2024-03-02T01:10:36;7.47;;;6.60;;
33760;SDS011;20084;47.912;19.044;2024-03-02T01:13:01;11.80;;;7.10;;
33760;SDS011;20084;47.912;19.044;2024-03-02T01:15:27;10.63;;;6.60;;
33760;SDS011;20084;47.912;19.044;2024-03-02T01:17:53;7.75;;;6.00;;
33760;SDS011;20084;47.912;19.044;2024-03-02T01:20:19;9.45;;;6.35;;
33760;SDS011;20084;47.912;19.044;2024-03-02T01:22:45;10.25;;;7.35;;
33760;SDS011;20084;47.912;19.044;2024-03-02T01:25:10;7.85;;;6.63;;
33760;SDS011;20084;47.912;19.044;2024-03-02T01:27:36;14.05;;;7.95;;
33760;SDS011;20084;47.912;19.044;2024-03-02T01:30:01;10.18;;;8.32;;
33760;SDS011;20084;47.912;19.044;2024-03-02T01:32:27;9.35;;;7.72;;
33760;SDS011;20084;47.912;19.044;2024-03-02T01:34:54;9.70;;;7.68;;
33760;SDS011;20084;47.912;19.044;2024-03-02T01:37:20;10.57;;;7.78;;
33760;SDS011;20084;47.912;19.044;2024-03-02T01:39:46;12.23;;;8.38;;
33760;SDS011;20084;47.912;19.044;2024-03-02T01:42:11;10.23;;;6.60;;
33760;SDS011;20084;47.912;19.044;2024-03-02T01:44:37;7.28;;;6.32;;
33760;SDS011;20084;47.912;19.044;2024-03-02T01:47:02;10.75;;;8.05;;
33760;SDS011;20084;47.912;19.044;2024-03-02T01:49:28;8.57;;;6.68;;
33760;SDS011;20084;47.912;19.044;2024-03-02T01:51:54;8.00;;;6.78;;
33760;SDS011;20084;47.912;19.044;2024-03-02T01:54:19;9.50;;;7.20;;
33760;SDS011;20084;47.912;19.044;2024-03-02T01:56:45;10.68;;;6.88;;
33760;SDS011;20084;47.912;19.044;2024-03-02T01:59:11;9.55;;;6.97;;
33760;SDS011;20084;47.912;19.044;2024-03-02T02:01:38;8.35;;;6.85;;
33760;SDS011;20084;47.912;19.044;2024-03-02T02:04:04;14.10;;;7.20;;
33760;SDS011;20084;47.912;19.044;2024-03-02T02:06:31;9.38;;;6.90;;
33760;SDS011;20084;47.912;19.044;2024-03-02T02:08:57;11.90;;;8.05;;
33760;SDS011;20084;47.912;19.044;2024-03-02T02:11:22;10.35;;;8.02;;
33760;SDS011;20084;47.912;19.044;2024-03-02T02:13:49;10.70;;;8.02;;
33760;SDS011;20084;47.912;19.044;2024-03-02T02:16:14;13.40;;;9.23;;
33760;SDS011;20084;47.912;19.044;2024-03-02T02:18:40;14.95;;;10.88;;
33760;SDS011;20084;47.912;19.044;2024-03-02T02:21:06;16.75;;;9.82;;
33760;SDS011;20084;47.912;19.044;2024-03-02T02:23:31;17.20;;;10.98;;
33760;SDS011;20084;47.912;19.044;2024-03-02T02:25:57;17.65;;;9.95;;
33760;SDS011;20084;47.912;19.044;2024-03-02T02:28:22;14.10;;;9.35;;
33760;SDS011;20084;47.912;19.044;2024-03-02T02:30:48;13.73;;;7.72;;
33760;SDS011;20084;47.912;19.044;2024-03-02T02:33:13;11.82;;;8.40;;
33760;SDS011;20084;47.912;19.044;2024-03-02T02:35:39;13.48;;;9.07;;
33760;SDS011;20084;47.912;19.044;2024-03-02T02:38:05;12.63;;;8.63;;
33760;SDS011;20084;47.912;19.044;2024-03-02T02:40:31;14.82;;;10.25;;
33760;SDS011;20084;47.912;19.044;2024-03-02T02:42:58;14.10;;;9.63;;
33760;SDS011;20084;47.912;19.044;2024-03-02T02:45:24;12.90;;;8.85;;
33760;SDS011;20084;47.912;19.044;2024-03-02T02:47:50;9.55;;;7.65;;
33760;SDS011;20084;47.912;19.044;2024-03-02T02:50:15;16.65;;;8.30;;
33760;SDS011;20084;47.912;19.044;2024-03-02T02:52:42;11.55;;;8.95;;
33760;SDS011;20084;47.912;19.044;2024-03-02T02:55:11;11.10;;;8.27;;
33760;SDS011;20084;47.912;19.044;2024-03-02T02:57:41;11.30;;;8.93;;
33760;SDS011;20084;47.912;19.044;2024-03-02T03:00:09;15.32;;;9.05;;
33760;SDS011;20084;47.912;19.044;2024-03-02T03:02:39;13.10;;;8.82;;
33760;SDS011;20084;47.912;19.044;2024-03-02T03:05:09;12.73;;;8.85;;
33760;SDS011;20084;47.912;19.044;2024-03-02T03:07:35;12.23;;;8.68;;
33760;SDS011;20084;47.912;19.044;2024-03-02T03:10:02;16.17;;;9.63;;
33760;SDS011;20084;47.912;19.044;2024-03-02T03:12:29;14.50;;;10.25;;
33760;SDS011;20084;47.912;19.044;2024-03-02T03:14:56;14.82;;;10.77;;
33760;SDS011;20084;47.912;19.044;2024-03-02T03:17:22;13.20;;;9.77;;
33760;SDS011;20084;47.912;19.044;2024-03-02T03:19:48;11.60;;;8.65;;
33760;SDS011;20084;47.912;19.044;2024-03-02T03:22:14;13.57;;;8.45;;
33760;SDS011;20084;47.912;19.044;2024-03-02T03:24:40;11.55;;;8.18;;
33760;SDS011;20084;47.912;19.044;2024-03-02T03:27:05;10.55;;;8.45;;
33760;SDS011;20084;47.912;19.044;2024-03-02T03:29:31;13.50;;;8.90;;
33760;SDS011;20084;47.912;19.044;2024-03-02T03:31:56;10.85;;;8.30;;
33760;SDS011;20084;47.912;19.044;2024-03-02T03:34:22;12.18;;;8.20;;
33760;SDS011;20084;47.912;19.044;2024-03-02T03:36:48;11.20;;;8.73;;
33760;SDS011;20084;47.912;19.044;2024-03-02T03:39:13;13.35;;;8.85;;
33760;SDS011;20084;47.912;19.044;2024-03-02T03:41:40;11.45;;;8.73;;
33760;SDS011;20084;47.912;19.044;2024-03-02T03:44:06;12.18;;;9.27;;
33760;SDS011;20084;47.912;19.044;2024-03-02T03:46:31;14.55;;;9.98;;
33760;SDS011;20084;47.912;19.044;2024-03-02T03:48:57;12.73;;;9.55;;
33760;SDS011;20084;47.912;19.044;2024-03-02T03:51:22;14.13;;;10.20;;
33760;SDS011;20084;47.912;19.044;2024-03-02T03:53:48;15.32;;;10.88;;
33760;SDS011;20084;47.912;19.044;2024-03-02T03:56:14;10.70;;;8.68;;
33760;SDS011;20084;47.912;19.044;2024-03-02T03:58:40;11.80;;;9.27;;
33760;SDS011;20084;47.912;19.044;2024-03-02T04:01:05;13.55;;;9.85;;
33760;SDS011;20084;47.912;19.044;2024-03-02T04:03:31;13.48;;;10.27;;
33760;SDS011;20084;47.912;19.044;2024-03-02T04:05:56;11.95;;;9.82;;
33760;SDS011;20084;47.912;19.044;2024-03-02T04:08:22;13.25;;;9.57;;
33760;SDS011;20084;47.912;19.044;2024-03-02T04:10:48;12.85;;;9.10;;
33760;SDS011;20084;47.912;19.044;2024-03-02T04:13:13;11.68;;;9.25;;
33760;SDS011;20084;47.912;19.044;2024-03-02T04:15:39;12.70;;;8.93;;
33760;SDS011;20084;47.912;19.044;2024-03-02T04:18:05;15.45;;;10.43;;
33760;SDS011;20084;47.912;19.044;2024-03-02T04:20:31;14.25;;;9.88;;
33760;SDS011;20084;47.912;19.044;2024-03-02T04:23:00;13.15;;;9.73;;
33760;SDS011;20084;47.912;19.044;2024-03-02T04:25:26;15.52;;;10.45;;
33760;SDS011;20084;47.912;19.044;2024-03-02T04:27:51;13.88;;;10.43;;
33760;SDS011;20084;47.912;19.044;2024-03-02T04:30:17;14.18;;;10.85;;
33760;SDS011;20084;47.912;19.044;2024-03-02T04:32:43;13.85;;;9.90;;
33760;SDS011;20084;47.912;19.044;2024-03-02T04:35:11;16.45;;;10.90;;
33760;SDS011;20084;47.912;19.044;2024-03-02T04:37:37;16.20;;;10.73;;
33760;SDS011;20084;47.912;19.044;2024-03-02T04:40:04;14.65;;;11.20;;
33760;SDS011;20084;47.912;19.044;2024-03-02T04:42:33;16.05;;;12.95;;
33760;SDS011;20084;47.912;19.044;2024-03-02T04:44:59;14.40;;;11.68;;
33760;SDS011;20084;47.912;19.044;2024-03-02T04:47:25;13.88;;;10.98;;
33760;SDS011;20084;47.912;19.044;2024-03-02T04:49:50;15.20;;;11.18;;
33760;SDS011;20084;47.912;19.044;2024-03-02T04:52:16;17.30;;;11.80;;
33760;SDS011;20084;47.912;19.044;2024-03-02T04:54:42;14.18;;;10.43;;
33760;SDS011;20084;47.912;19.044;2024-03-02T04:57:26;16.65;;;10.82;;
33760;SDS011;20084;47.912;19.044;2024-03-02T04:59:52;13.10;;;10.38;;
33760;SDS011;20084;47.912;19.044;2024-03-02T05:02:17;16.85;;;10.95;;
33760;SDS011;20084;47.912;19.044;2024-03-02T05:04:43;15.13;;;11.45;;
33760;SDS011;20084;47.912;19.044;2024-03-02T05:07:09;17.83;;;11.07;;
33760;SDS011;20084;47.912;19.044;2024-03-02T05:09:35;15.82;;;10.80;;
33760;SDS011;20084;47.912;19.044;2024-03-02T05:12:00;13.90;;;10.65;;
33760;SDS011;20084;47.912;19.044;2024-03-02T05:14:45;16.05;;;11.00;;
33760;SDS011;20084;47.912;19.044;2024-03-02T05:17:11;14.20;;;10.40;;
33760;SDS011;20084;47.912;19.044;2024-03-02T05:19:37;15.32;;;11.95;;
33760;SDS011;20084;47.912;19.044;2024-03-02T05:22:03;15.18;;;11.55;;
33760;SDS011;20084;47.912;19.044;2024-03-02T05:24:29;16.63;;;11.13;;
33760;SDS011;20084;47.912;19.044;2024-03-02T05:26:54;14.85;;;11.02;;
33760;SDS011;20084;47.912;19.044;2024-03-02T05:29:20;16.17;;;11.88;;
33760;SDS011;20084;47.912;19.044;2024-03-02T05:31:46;16.00;;;11.35;;
33760;SDS011;20084;47.912;19.044;2024-03-02T05:34:12;16.17;;;13.43;;
33760;SDS011;20084;47.912;19.044;2024-03-02T05:36:37;15.73;;;12.82;;
33760;SDS011;20084;47.912;19.044;2024-03-02T05:39:04;17.77;;;13.73;;
33760;SDS011;20084;47.912;19.044;2024-03-02T05:41:31;17.83;;;13.57;;
33760;SDS011;20084;47.912;19.044;2024-03-02T05:43:57;20.10;;;14.75;;
33760;SDS011;20084;47.912;19.044;2024-03-02T05:46:23;18.92;;;13.00;;
33760;SDS011;20084;47.912;19.044;2024-03-02T05:48:48;21.58;;;13.93;;
33760;SDS011;20084;47.912;19.044;2024-03-02T05:51:14;21.60;;;15.80;;
33760;SDS011;20084;47.912;19.044;2024-03-02T05:53:40;19.48;;;15.30;;
33760;SDS011;20084;47.912;19.044;2024-03-02T05:56:06;21.08;;;15.98;;
33760;SDS011;20084;47.912;19.044;2024-03-02T05:58:32;18.70;;;15.43;;
33760;SDS011;20084;47.912;19.044;2024-03-02T06:01:04;22.98;;;16.05;;
33760;SDS011;20084;47.912;19.044;2024-03-02T06:03:30;22.10;;;15.23;;
33760;SDS011;20084;47.912;19.044;2024-03-02T06:05:56;22.27;;;15.05;;
33760;SDS011;20084;47.912;19.044;2024-03-02T06:08:22;23.67;;;16.27;;
33760;SDS011;20084;47.912;19.044;2024-03-02T06:10:47;21.38;;;14.82;;
33760;SDS011;20084;47.912;19.044;2024-03-02T06:13:13;22.20;;;16.25;;
33760;SDS011;20084;47.912;19.044;2024-03-02T06:15:39;20.88;;;13.57;;
33760;SDS011;20084;47.912;19.044;2024-03-02T06:18:04;25.98;;;14.75;;
33760;SDS011;20084;47.912;19.044;2024-03-02T06:20:31;17.83;;;13.20;;
33760;SDS011;20084;47.912;19.044;2024-03-02T06:22:57;18.65;;;14.63;;
33760;SDS011;20084;47.912;19.044;2024-03-02T06:25:22;17.83;;;13.55;;
33760;SDS011;20084;47.912;19.044;2024-03-02T06:27:48;19.02;;;13.98;;
33760;SDS011;20084;47.912;19.044;2024-03-02T06:30:14;20.95;;;14.80;;
33760;SDS011;20084;47.912;19.044;2024-03-02T06:32:39;21.00;;;15.43;;
33760;SDS011;20084;47.912;19.044;2024-03-02T06:35:05;47.38;;;14.90;;
33760;SDS011;20084;47.912;19.044;2024-03-02T06:37:35;18.95;;;14.50;;
33760;SDS011;20084;47.912;19.044;2024-03-02T06:40:01;18.15;;;13.70;;
33760;SDS011;20084;47.912;19.044;2024-03-02T06:42:27;23.17;;;13.73;;
33760;SDS011;20084;47.912;19.044;2024-03-02T06:44:58;18.15;;;14.10;;
33760;SDS011;20084;47.912;19.044;2024-03-02T06:47:24;19.98;;;14.43;;
33760;SDS011;20084;47.912;19.044;2024-03-02T06:49:49;17.20;;;13.18;;
33760;SDS011;20084;47.912;19.044;2024-03-02T06:52:15;19.33;;;13.35;;
33760;SDS011;20084;47.912;19.044;2024-03-02T06:54:41;20.10;;;14.07;;
33760;SDS011;20084;47.912;19.044;2024-03-02T06:57:07;19.65;;;14.10;;
33760;SDS011;20084;47.912;19.044;2024-03-02T06:59:32;18.13;;;13.85;;
33760;SDS011;20084;47.912;19.044;2024-03-02T07:01:58;23.55;;;14.43;;
33760;SDS011;20084;47.912;19.044;2024-03-02T07:04:24;17.08;;;13.35;;
33760;SDS011;20084;47.912;19.044;2024-03-02T07:06:50;19.17;;;13.63;;
33760;SDS011;20084;47.912;19.044;2024-03-02T07:09:16;18.70;;;13.48;;
33760;SDS011;20084;47.912;19.044;2024-03-02T07:11:42;18.45;;;13.40;;
33760;SDS011;20084;47.912;19.044;2024-03-02T07:14:08;20.20;;;14.45;;
33760;SDS011;20084;47.912;19.044;2024-03-02T07:16:33;19.63;;;14.23;;
33760;SDS011;20084;47.912;19.044;2024-03-02T07:19:03;17.90;;;14.07;;
33760;SDS011;20084;47.912;19.044;2024-03-02T07:21:28;26.05;;;13.98;;
33760;SDS011;20084;47.912;19.044;2024-03-02T07:23:54;17.55;;;13.30;;
33760;SDS011;20084;47.912;19.044;2024-03-02T07:26:20;16.80;;;13.73;;
33760;SDS011;20084;47.912;19.044;2024-03-02T07:28:46;21.00;;;13.90;;
33760;SDS011;20084;47.912;19.044;2024-03-02T07:31:13;19.10;;;14.00;;
33760;SDS011;20084;47.912;19.044;2024-03-02T07:33:39;25.02;;;14.38;;
33760;SDS011;20084;47.912;19.044;2024-03-02T07:36:04;39.03;;;14.93;;
33760;SDS011;20084;47.912;19.044;2024-03-02T07:38:31;20.27;;;14.05;;
33760;SDS011;20084;47.912;19.044;2024-03-02T07:40:59;19.65;;;13.77;;
33760;SDS011;20084;47.912;19.044;2024-03-02T07:43:25;19.90;;;14.20;;
33760;SDS011;20084;47.912;19.044;2024-03-02T07:45:51;29.58;;;15.80;;
33760;SDS011;20084;47.912;19.044;2024-03-02T07:48:17;17.63;;;13.77;;
33760;SDS011;20084;47.912;19.044;2024-03-02T07:50:42;19.52;;;13.77;;
33760;SDS011;20084;47.912;19.044;2024-03-02T07:53:08;17.60;;;13.77;;
33760;SDS011;20084;47.912;19.044;2024-03-02T07:55:34;21.40;;;13.63;;
33760;SDS011;20084;47.912;19.044;2024-03-02T07:58:02;17.50;;;13.52;;
33760;SDS011;20084;47.912;19.044;2024-03-02T08:00:31;18.75;;;14.27;;
33760;SDS011;20084;47.912;19.044;2024-03-02T08:02:57;22.73;;;14.55;;
33760;SDS011;20084;47.912;19.044;2024-03-02T08:05:23;19.67;;;14.77;;
33760;SDS011;20084;47.912;19.044;2024-03-02T08:07:49;24.10;;;15.30;;
33760;SDS011;20084;47.912;19.044;2024-03-02T08:10:18;18.60;;;14.43;;
33760;SDS011;20084;47.912;19.044;2024-03-02T08:12:44;24.58;;;14.48;;
33760;SDS011;20084;47.912;19.044;2024-03-02T08:15:10;24.38;;;15.30;;
33760;SDS011;20084;47.912;19.044;2024-03-02T08:17:37;21.10;;;13.63;;
33760;SDS011;20084;47.912;19.044;2024-03-02T08:20:09;17.70;;;13.98;;
33760;SDS011;20084;47.912;19.044;2024-03-02T08:22:36;23.65;;;14.50;;
33760;SDS011;20084;47.912;19.044;2024-03-02T08:25:01;16.90;;;14.57;;
33760;SDS011;20084;47.912;19.044;2024-03-02T08:27:28;19.08;;;14.82;;
33760;SDS011;20084;47.912;19.044;2024-03-02T08:29:53;18.70;;;14.68;;
33760;SDS011;20084;47.912;19.044;2024-03-02T08:32:19;30.00;;;14.25;;
33760;SDS011;20084;47.912;19.044;2024-03-02T08:34:45;21.98;;;15.38;;
33760;SDS011;20084;47.912;19.044;2024-03-02T08:37:10;28.05;;;16.90;;
33760;SDS011;20084;47.912;19.044;2024-03-02T08:39:36;22.17;;;16.67;;
33760;SDS011;20084;47.912;19.044;2024-03-02T08:42:02;26.67;;;17.00;;
33760;SDS011;20084;47.912;19.044;2024-03-02T08:44:29;22.38;;;17.27;;
33760;SDS011;20084;47.912;19.044;2024-03-02T08:46:55;23.05;;;17.25;;
33760;SDS011;20084;47.912;19.044;2024-03-02T08:49:21;25.58;;;16.63;;
33760;SDS011;20084;47.912;19.044;2024-03-02T08:51:46;33.65;;;17.80;;
33760;SDS011;20084;47.912;19.044;2024-03-02T08:54:19;23.77;;;16.40;;
33760;SDS011;20084;47.912;19.044;2024-03-02T08:56:46;24.30;;;16.25;;
33760;SDS011;20084;47.912;19.044;2024-03-02T08:59:12;23.15;;;16.30;;
33760;SDS011;20084;47.912;19.044;2024-03-02T09:01:38;23.27;;;17.00;;
33760;SDS011;20084;47.912;19.044;2024-03-02T09:04:06;24.88;;;18.52;;
33760;SDS011;20084;47.912;19.044;2024-03-02T09:06:33;25.00;;;18.02;;
33760;SDS011;20084;47.912;19.044;2024-03-02T09:08:59;21.58;;;15.10;;
33760;SDS011;20084;47.912;19.044;2024-03-02T09:11:25;19.10;;;15.15;;
33760;SDS011;20084;47.912;19.044;2024-03-02T09:13:51;20.65;;;15.25;;
33760;SDS011;20084;47.912;19.044;2024-03-02T09:16:18;24.63;;;18.42;;
33760;SDS011;20084;47.912;19.044;2024-03-02T09:18:44;34.13;;;18.40;;
33760;SDS011;20084;47.912;19.044;2024-03-02T09:21:10;24.45;;;19.17;;
33760;SDS011;20084;47.912;19.044;2024-03-02T09:23:35;22.98;;;19.77;;
33760;SDS011;20084;47.912;19.044;2024-03-02T09:26:01;25.10;;;18.90;;
33760;SDS011;20084;47.912;19.044;2024-03-02T09:28:28;21.55;;;17.73;;
33760;SDS011;20084;47.912;19.044;2024-03-02T09:30:53;18.67;;;15.88;;
33760;SDS011;20084;47.912;19.044;2024-03-02T09:33:19;19.15;;;14.68;;
33760;SDS011;20084;47.912;19.044;2024-03-02T09:35:45;20.40;;;15.77;;
33760;SDS011;20084;47.912;19.044;2024-03-02T09:38:10;38.13;;;30.27;;
33760;SDS011;20084;47.912;19.044;2024-03-02T09:40:36;26.35;;;21.23;;
33760;SDS011;20084;47.912;19.044;2024-03-02T09:43:02;21.23;;;16.85;;
33760;SDS011;20084;47.912;19.044;2024-03-02T09:45:28;23.17;;;17.33;;
33760;SDS011;20084;47.912;19.044;2024-03-02T09:47:55;21.73;;;16.05;;
33760;SDS011;20084;47.912;19.044;2024-03-02T09:50:21;21.60;;;17.25;;
33760;SDS011;20084;47.912;19.044;2024-03-02T09:52:47;19.95;;;14.48;;
33760;SDS011;20084;47.912;19.044;2024-03-02T09:55:14;19.23;;;14.30;;
33760;SDS011;20084;47.912;19.044;2024-03-02T09:57:40;23.95;;;17.52;;
33760;SDS011;20084;47.912;19.044;2024-03-02T10:00:07;17.23;;;13.68;;
33760;SDS011;20084;47.912;19.044;2024-03-02T10:02:33;19.00;;;14.02;;
33760;SDS011;20084;47.912;19.044;2024-03-02T10:04:59;19.48;;;14.27;;
33760;SDS011;20084;47.912;19.044;2024-03-02T10:07:25;18.52;;;13.77;;
33760;SDS011;20084;47.912;19.044;2024-03-02T10:09:51;31.92;;;14.57;;
33760;SDS011;20084;47.912;19.044;2024-03-02T10:12:19;41.42;;;15.35;;
33760;SDS011;20084;47.912;19.044;2024-03-02T10:14:45;20.58;;;14.63;;
33760;SDS011;20084;47.912;19.044;2024-03-02T10:17:13;18.25;;;15.10;;
33760;SDS011;20084;47.912;19.044;2024-03-02T10:19:42;16.83;;;14.27;;
33760;SDS011;20084;47.912;19.044;2024-03-02T10:22:08;21.40;;;14.40;;
33760;SDS011;20084;47.912;19.044;2024-03-02T10:24:43;19.63;;;14.98;;
33760;SDS011;20084;47.912;19.044;2024-03-02T10:27:11;17.08;;;14.73;;
33760;SDS011;20084;47.912;19.044;2024-03-02T10:29:47;19.75;;;14.98;;
33760;SDS011;20084;47.912;19.044;2024-03-02T10:32:13;18.15;;;14.00;;
33760;SDS011;20084;47.912;19.044;2024-03-02T10:34:40;18.88;;;14.18;;
33760;SDS011;20084;47.912;19.044;2024-03-02T10:37:06;17.15;;;13.98;;
33760;SDS011;20084;47.912;19.044;2024-03-02T10:39:35;18.42;;;14.05;;
33760;SDS011;20084;47.912;19.044;2024-03-02T10:42:02;17.33;;;13.45;;
33760;SDS011;20084;47.912;19.044;2024-03-02T10:44:28;20.05;;;14.63;;
33760;SDS011;20084;47.912;19.044;2024-03-02T10:46:55;17.55;;;13.88;;
33760;SDS011;20084;47.912;19.044;2024-03-02T10:49:25;17.25;;;14.20;;
33760;SDS011;20084;47.912;19.044;2024-03-02T10:51:52;15.77;;;13.68;;
33760;SDS011;20084;47.912;19.044;2024-03-02T10:54:18;19.08;;;15.23;;
33760;SDS011;20084;47.912;19.044;2024-03-02T10:56:44;17.90;;;12.02;;
33760;SDS011;20084;47.912;19.044;2024-03-02T11:01:50;11.50;;;10.23;;
33760;SDS011;20084;47.912;19.044;2024-03-02T11:04:18;17.95;;;12.30;;
33760;SDS011;20084;47.912;19.044;2024-03-02T11:06:49;14.05;;;10.43;;
33760;SDS011;20084;47.912;19.044;2024-03-02T11:09:16;12.35;;;10.88;;
33760;SDS011;20084;47.912;19.044;2024-03-02T11:11:45;19.98;;;11.50;;
33760;SDS011;20084;47.912;19.044;2024-03-02T11:14:16;11.50;;;9.70;;
33760;SDS011;20084;47.912;19.044;2024-03-02T11:16:44;14.18;;;9.00;;
33760;SDS011;20084;47.912;19.044;2024-03-02T11:19:12;11.68;;;8.60;;
33760;SDS011;20084;47.912;19.044;2024-03-02T11:21:40;13.10;;;8.30;;
33760;SDS011;20084;47.912;19.044;2024-03-02T11:24:49;8.73;;;7.63;;
33760;SDS011;20084;47.912;19.044;2024-03-02T11:26:58;12.97;;;7.93;;
33760;SDS011;20084;47.912;19.044;2024-03-02T11:32:06;17.25;;;9.23;;
33760;SDS011;20084;47.912;19.044;2024-03-02T11:34:49;20.92;;;11.75;;
33760;SDS011;20084;47.912;19.044;2024-03-02T11:37:16;24.50;;;12.38;;
33760;SDS011;20084;47.912;19.044;2024-03-02T11:39:46;12.95;;;10.68;;
33760;SDS011;20084;47.912;19.044;2024-03-02T11:42:14;11.73;;;9.93;;
33760;SDS011;20084;47.912;19.044;2024-03-02T11:44:42;10.98;;;9.85;;
33760;SDS011;20084;47.912;19.044;2024-03-02T11:47:10;10.88;;;9.45;;
33760;SDS011;20084;47.912;19.044;2024-03-02T11:49:40;10.43;;;6.78;;
33760;SDS011;20084;47.912;19.044;2024-03-02T11:52:07;8.10;;;6.95;;
33760;SDS011;20084;47.912;19.044;2024-03-02T11:54:36;10.07;;;7.03;;
33760;SDS011;20084;47.912;19.044;2024-03-02T11:57:06;7.63;;;6.82;;
33760;SDS011;20084;47.912;19.044;2024-03-02T11:59:32;8.70;;;6.82;;
33760;SDS011;20084;47.912;19.044;2024-03-02T12:01:58;10.60;;;6.65;;
33760;SDS011;20084;47.912;19.044;2024-03-02T12:04:25;7.85;;;7.03;;
33760;SDS011;20084;47.912;19.044;2024-03-02T12:06:54;7.72;;;6.43;;
33760;SDS011;20084;47.912;19.044;2024-03-02T12:09:21;9.55;;;7.45;;
33760;SDS011;20084;47.912;19.044;2024-03-02T12:11:47;9.80;;;8.60;;
33760;SDS011;20084;47.912;19.044;2024-03-02T12:14:13;13.38;;;7.75;;
33760;SDS011;20084;47.912;19.044;2024-03-02T12:16:38;9.63;;;8.00;;
33760;SDS011;20084;47.912;19.044;2024-03-02T12:19:08;12.88;;;7.13;;
33760;SDS011;20084;47.912;19.044;2024-03-02T12:21:34;9.63;;;7.97;;
33760;SDS011;20084;47.912;19.044;2024-03-02T12:23:59;9.02;;;7.47;;
33760;SDS011;20084;47.912;19.044;2024-03-02T12:26:26;9.23;;;7.25;;
33760;SDS011;20084;47.912;19.044;2024-03-02T12:28:51;9.02;;;7.35;;
33760;SDS011;20084;47.912;19.044;2024-03-02T12:31:17;6.53;;;5.93;;
33760;SDS011;20084;47.912;19.044;2024-03-02T12:33:43;6.57;;;5.85;;
33760;SDS011;20084;47.912;19.044;2024-03-02T12:36:09;8.35;;;7.10;;
33760;SDS011;20084;47.912;19.044;2024-03-02T12:38:37;11.80;;;9.75;;
33760;SDS011;20084;47.912;19.044;2024-03-02T12:41:07;9.48;;;7.75;;
33760;SDS011;20084;47.912;19.044;2024-03-02T12:43:34;5.00;;;4.50;;
33760;SDS011;20084;47.912;19.044;2024-03-02T12:46:00;4.63;;;4.20;;
33760;SDS011;20084;47.912;19.044;2024-03-02T12:48:26;22.05;;;7.50;;
33760;SDS011;20084;47.912;19.044;2024-03-02T12:50:52;23.52;;;9.52;;
33760;SDS011;20084;47.912;19.044;2024-03-02T12:53:17;8.20;;;5.50;;
33760;SDS011;20084;47.912;19.044;2024-03-02T12:55:43;8.25;;;4.20;;
33760;SDS011;20084;47.912;19.044;2024-03-02T12:58:16;5.20;;;4.03;;
33760;SDS011;20084;47.912;19.044;2024-03-02T13:00:43;3.88;;;3.53;;
33760;SDS011;20084;47.912;19.044;2024-03-02T13:03:09;6.35;;;3.20;;
33760;SDS011;20084;47.912;19.044;2024-03-02T13:05:36;4.95;;;3.10;;
33760;SDS011;20084;47.912;19.044;2024-03-02T13:08:02;3.85;;;3.47;;
33760;SDS011;20084;47.912;19.044;2024-03-02T13:10:29;4.18;;;3.50;;
33760;SDS011;20084;47.912;19.044;2024-03-02T13:12:56;4.60;;;4.10;;
33760;SDS011;20084;47.912;19.044;2024-03-02T13:15:21;4.63;;;4.20;;
33760;SDS011;20084;47.912;19.044;2024-03-02T13:17:47;7.43;;;6.15;;
33760;SDS011;20084;47.912;19.044;2024-03-02T13:20:14;5.45;;;4.47;;
33760;SDS011;20084;47.912;19.044;2024-03-02T13:22:40;6.63;;;5.38;;
33760;SDS011;20084;47.912;19.044;2024-03-02T13:25:06;7.93;;;5.80;;
33760;SDS011;20084;47.912;19.044;2024-03-02T13:27:35;13.23;;;8.88;;
33760;SDS011;20084;47.912;19.044;2024-03-02T13:30:01;7.70;;;6.82;;
33760;SDS011;20084;47.912;19.044;2024-03-02T13:32:28;7.28;;;6.53;;
33760;SDS011;20084;47.912;19.044;2024-03-02T13:34:53;9.63;;;7.22;;
33760;SDS011;20084;47.912;19.044;2024-03-02T13:37:22;10.15;;;6.75;;
33760;SDS011;20084;47.912;19.044;2024-03-02T13:39:48;9.25;;;6.70;;
33760;SDS011;20084;47.912;19.044;2024-03-02T13:42:14;15.25;;;5.50;;
33760;SDS011;20084;47.912;19.044;2024-03-02T13:44:40;5.53;;;5.03;;
33760;SDS011;20084;47.912;19.044;2024-03-02T13:47:12;6.22;;;5.63;;
33760;SDS011;20084;47.912;19.044;2024-03-02T13:49:37;6.63;;;6.03;;
33760;SDS011;20084;47.912;19.044;2024-03-02T13:52:08;7.03;;;5.85;;
33760;SDS011;20084;47.912;19.044;2024-03-02T13:54:42;7.25;;;6.40;;
33760;SDS011;20084;47.912;19.044;2024-03-02T13:57:09;10.07;;;7.82;;
33760;SDS011;20084;47.912;19.044;2024-03-02T13:59:35;18.20;;;13.20;;
33760;SDS011;20084;47.912;19.044;2024-03-02T14:02:02;9.25;;;7.80;;
33760;SDS011;20084;47.912;19.044;2024-03-02T14:04:34;9.05;;;7.63;;
33760;SDS011;20084;47.912;19.044;2024-03-02T14:07:00;13.13;;;10.55;;
33760;SDS011;20084;47.912;19.044;2024-03-02T14:09:27;28.52;;;12.48;;
33760;SDS011;20084;47.912;19.044;2024-03-02T14:11:53;10.63;;;8.25;;
33760;SDS011;20084;47.912;19.044;2024-03-02T14:14:19;11.88;;;8.23;;
33760;SDS011;20084;47.912;19.044;2024-03-02T14:16:45;9.95;;;8.77;;
33760;SDS011;20084;47.912;19.044;2024-03-02T14:19:11;9.65;;;8.10;;
33760;SDS011;20084;47.912;19.044;2024-03-02T14:21:37;11.48;;;8.68;;
33760;SDS011;20084;47.912;19.044;2024-03-02T14:24:04;10.85;;;9.13;;
33760;SDS011;20084;47.912;19.044;2024-03-02T14:26:30;10.93;;;8.27;;
33760;SDS011;20084;47.912;19.044;2024-03-02T14:28:55;41.30;;;31.35;;